Terminal Aerodrome Forecast
Issued by NWS

Home | Current Version | Previous Version | Text Only | Print | Product List | Glossary On
Versions: 1 2 3 4 5 6 7 8 9 10 11 12 13 14 15
000
FTUS46 KMTR 232338
TAFSNS
TAF
KSNS 232338Z 2400/2424 28011KT P6SM FEW035
     FM240400 VRB04KT P6SM SCT080 BKN100
     FM241000 12013KT P6SM VCSH BKN050 OVC100
     FM241700 13020G29KT P6SM -SHRA OVC050
     FM242200 13014G20KT 6SM -RA OVC040=

USA.gov is the U.S. government's official web portal to all federal, state and local government web resources and services.